This is the latest recevied weather packets stored in our database for station/object VE7GEL. If no packets are shown the sender has not sent any weather packets the latest 10 day(s).
| Time | Temp. | Humidity | Pressure | Rain* | Wind** | Luminosity | Snow |
|---|---|---|---|---|---|---|---|
| 1777662903 | 13.89° C | 83% | 1017.3 hPa | 0 mm | - | 66 W/m² | - |
| 1777662281 | 13.89° C | 82% | 1017.1 hPa | 0 mm | - | 67 W/m² | - |
| 1777661380 | 13.33° C | 84% | 1017.1 hPa | 0 mm | - | 72 W/m² | - |
| 1777660479 | 12.78° C | 86% | 1017.3 hPa | 0 mm | - | 72 W/m² | - |
| 1777659575 | 12.22° C | 89% | 1017.2 hPa | 0 mm | - | 52 W/m² | - |
| 1777658675 | 12.78° C | 87% | 1017.3 hPa | 0 mm | - | 52 W/m² | - |
| 1777657776 | 12.78° C | 88% | 1017.2 hPa | 0 mm | - | 53 W/m² | - |
| 1777657503 | 12.78° C | 88% | 1017.4 hPa | 0 mm | - | 45 W/m² | - |
| 1777656874 | 12.78° C | 86% | 1017.2 hPa | 0 mm | - | 39 W/m² | - |
| 1777655974 | 12.78° C | 88% | 1017.2 hPa | 0 mm | - | 41 W/m² | - |
| 1777655073 | 12.22° C | 89% | 1017.2 hPa | 0 mm | - | 46 W/m² | - |
| 1777654174 | 11.67° C | 90% | 1017.1 hPa | 0 mm | - | 52 W/m² | - |
| 1777653271 | 11.67° C | 90% | 1017.2 hPa | 0 mm | - | 62 W/m² | - |
| 1777652372 | 11.67° C | 89% | 1017.2 hPa | 0 mm | - | 53 W/m² | - |
| 1777652103 | 11.67° C | 88% | 1017.5 hPa | 0 mm | - | 52 W/m² | - |
| 1777651472 | 11.67° C | 88% | 1017.2 hPa | 0 mm | - | 45 W/m² | - |
| 1777650571 | 12.22° C | 86% | 1017.2 hPa | 0 mm | - | 35 W/m² | - |
| 1777650302 | 12.22° C | 87% | 1017.5 hPa | 0 mm | - | 31 W/m² | - |
| 1777649671 | 11.67° C | 89% | 1017.2 hPa | 0 mm | - | 28 W/m² | - |
| 1777648769 | 11.67° C | 90% | 1017.2 hPa | 0 mm | - | 30 W/m² | - |
| 1777648502 | 11.67° C | 90% | 1017.4 hPa | 0 mm | - | 28 W/m² | - |
| 1777647870 | 11.67° C | 90% | 1017 hPa | 0 mm | - | 26 W/m² | - |
| 1777646969 | 11.11° C | 91% | 1016.9 hPa | 0 mm | - | 22 W/m² | - |
| 1777646071 | 11.11° C | 92% | 1016.9 hPa | 0 mm | - | 23 W/m² | - |
| 1777645170 | 11.11° C | 92% | 1016.7 hPa | 0 mm | - | 21 W/m² | - |
* Rain latest hour (hover to see other rain measurements)
** Current wind speed in m/s (hover to see current wind gust speed)